createdAt,value
2017-04-15T00:00:20.356Z,9.90
2017-04-15T00:01:19.451Z,11.27
2017-04-15T00:02:18.593Z,10.25
2017-04-15T00:03:17.680Z,9.13
2017-04-15T00:04:16.824Z,8.83
2017-04-15T00:05:15.237Z,10.90
2017-04-15T00:06:14.425Z,8.88
2017-04-15T00:07:13.579Z,8.93
2017-04-15T00:08:12.667Z,8.57
2017-04-15T00:09:12.589Z,8.80
2017-04-15T00:10:11.656Z,10.88
2017-04-15T00:11:10.736Z,10.20
2017-04-15T00:12:09.935Z,9.95
2017-04-15T00:13:09.133Z,9.00
2017-04-15T00:14:08.240Z,9.33
2017-04-15T00:15:07.433Z,9.17
2017-04-15T00:16:06.530Z,8.75
2017-04-15T00:17:05.650Z,10.62
2017-04-15T00:18:04.044Z,9.85
2017-04-15T00:19:03.189Z,9.52
2017-04-15T00:20:03.014Z,8.52
2017-04-15T00:21:02.208Z,8.87
2017-04-15T00:22:01.310Z,8.98
2017-04-15T00:22:59.641Z,8.78
2017-04-15T00:23:58.768Z,8.93
2017-04-15T00:24:57.844Z,9.83
2017-04-15T00:25:57.020Z,9.88
2017-04-15T00:26:56.060Z,9.77
2017-04-15T00:27:55.240Z,9.55
2017-04-15T00:28:54.416Z,8.02
2017-04-15T00:29:53.540Z,8.13
2017-04-15T00:30:52.745Z,8.05
2017-04-15T00:31:51.900Z,9.15
2017-04-15T00:32:51.071Z,9.22
2017-04-15T00:33:50.271Z,8.75
2017-04-15T00:34:49.383Z,8.67
2017-04-15T00:35:48.508Z,8.53
2017-04-15T00:36:47.632Z,9.12
2017-04-15T00:37:46.827Z,10.75
2017-04-15T00:38:45.871Z,8.13
2017-04-15T00:39:45.001Z,9.33
2017-04-15T00:40:44.089Z,8.63
2017-04-15T00:41:43.178Z,8.20
2017-04-15T00:42:42.245Z,7.90
2017-04-15T00:43:41.354Z,8.92
2017-04-15T00:44:40.479Z,9.35
2017-04-15T00:45:38.859Z,10.60
2017-04-15T00:46:37.952Z,8.98
2017-04-15T00:47:37.025Z,8.82
2017-04-15T00:48:36.182Z,9.25
2017-04-15T00:49:35.478Z,9.83
2017-04-15T00:50:34.633Z,9.12
2017-04-15T00:51:33.740Z,11.05
2017-04-15T00:52:32.808Z,9.93
2017-04-15T00:53:31.929Z,8.85
2017-04-15T00:54:31.136Z,9.83
2017-04-15T00:55:30.269Z,9.70
2017-04-15T00:56:29.431Z,10.23
2017-04-15T00:57:28.437Z,9.15
2017-04-15T00:58:27.591Z,9.80
2017-04-15T00:59:26.655Z,10.03
2017-04-15T01:00:25.169Z,9.52
2017-04-15T01:01:24.315Z,9.98
2017-04-15T01:02:23.408Z,11.42
2017-04-15T01:03:22.487Z,9.28
2017-04-15T01:04:21.572Z,10.65
2017-04-15T01:05:20.702Z,8.30
2017-04-15T01:06:20.578Z,10.33
2017-04-15T01:07:19.719Z,10.78
2017-04-15T01:08:19.195Z,10.47
2017-04-15T01:09:19.167Z,10.12
2017-04-15T01:10:18.251Z,9.05
2017-04-15T01:11:17.363Z,10.28
2017-04-15T01:12:16.552Z,9.65
2017-04-15T01:13:15.804Z,9.82
2017-04-15T01:14:14.288Z,9.85
2017-04-15T01:15:13.399Z,10.58
2017-04-15T01:16:12.503Z,9.72
2017-04-15T01:17:11.714Z,9.98
2017-04-15T01:18:10.816Z,9.92
2017-04-15T01:19:09.964Z,9.92
2017-04-15T01:20:09.792Z,10.90
2017-04-15T01:21:08.891Z,11.45
2017-04-15T01:22:07.992Z,9.25
2017-04-15T01:23:07.090Z,11.15
2017-04-15T01:24:06.291Z,10.25
2017-04-15T01:25:05.379Z,9.48
2017-04-15T01:26:04.505Z,11.82
2017-04-15T01:27:03.640Z,11.48
2017-04-15T01:28:02.914Z,9.38
2017-04-15T01:29:02.016Z,9.95
2017-04-15T01:30:01.212Z,9.63
2017-04-15T01:31:00.430Z,10.62
2017-04-15T01:31:59.623Z,9.13
2017-04-15T01:32:57.985Z,9.77
2017-04-15T01:33:57.132Z,9.58
2017-04-15T01:34:56.357Z,11.05
2017-04-15T01:35:54.838Z,11.35
2017-04-15T01:36:54.027Z,11.42
2017-04-15T01:37:53.144Z,9.95
2017-04-15T01:38:52.291Z,11.38
2017-04-15T01:39:51.436Z,9.98
2017-04-15T01:40:50.535Z,9.95
2017-04-15T01:41:49.701Z,9.98
2017-04-15T01:42:49.931Z,11.63
2017-04-15T01:43:49.123Z,11.38
2017-04-15T01:44:48.587Z,10.40
2017-04-15T01:45:47.692Z,11.33
2017-04-15T01:46:46.828Z,10.98
2017-04-15T01:47:46.758Z,11.83
2017-04-15T01:48:45.835Z,10.35
2017-04-15T01:49:44.991Z,12.68
2017-04-15T01:50:43.314Z,10.57
2017-04-15T01:51:42.435Z,10.97
2017-04-15T01:52:41.540Z,11.15
2017-04-15T01:53:40.707Z,11.70
2017-04-15T01:54:39.896Z,10.27
2017-04-15T01:55:39.047Z,11.75
2017-04-15T01:56:38.152Z,11.40
2017-04-15T01:57:37.216Z,13.35
2017-04-15T01:58:36.438Z,12.80
2017-04-15T01:59:35.675Z,12.28
2017-04-15T02:00:34.724Z,12.05
2017-04-15T02:01:33.872Z,11.90
2017-04-15T02:02:33.192Z,10.00
2017-04-15T02:03:32.328Z,12.47
2017-04-15T02:04:31.593Z,12.67
2017-04-15T02:05:30.764Z,11.98
2017-04-15T02:06:30.616Z,12.48
2017-04-15T02:07:29.761Z,12.67
2017-04-15T02:08:28.861Z,11.18
2017-04-15T02:09:27.928Z,11.45
2017-04-15T02:10:27.099Z,12.07
2017-04-15T02:11:26.255Z,12.27
2017-04-15T02:12:24.680Z,12.37
2017-04-15T02:13:23.719Z,13.45
2017-04-15T02:14:22.839Z,12.45
2017-04-15T02:15:22.041Z,13.03
2017-04-15T02:16:20.372Z,11.48
2017-04-15T02:17:19.551Z,12.97
2017-04-15T02:18:18.650Z,13.08
2017-04-15T02:19:17.840Z,13.00
2017-04-15T02:20:16.969Z,13.17
2017-04-15T02:21:16.160Z,13.22
2017-04-15T02:22:15.299Z,11.42
2017-04-15T02:23:14.460Z,13.12
2017-04-15T02:24:13.592Z,12.73
2017-04-15T02:25:12.751Z,11.92
2017-04-15T02:26:11.851Z,13.25
2017-04-15T02:27:10.864Z,12.73
2017-04-15T02:28:09.947Z,12.75
2017-04-15T02:29:08.352Z,11.98
2017-04-15T02:30:07.466Z,13.58
2017-04-15T02:31:06.592Z,13.98
2017-04-15T02:32:05.714Z,13.37
2017-04-15T02:33:04.871Z,13.07
2017-04-15T02:34:04.080Z,11.72
2017-04-15T02:35:03.329Z,12.47
2017-04-15T02:36:02.523Z,12.03
2017-04-15T02:37:01.547Z,11.77
2017-04-15T02:38:00.616Z,12.40
2017-04-15T02:38:59.683Z,11.23
2017-04-15T02:39:58.826Z,12.78
2017-04-15T02:40:57.927Z,10.37
2017-04-15T02:41:57.012Z,12.43
2017-04-15T02:42:56.100Z,11.88
2017-04-15T02:43:55.291Z,11.93
2017-04-15T02:44:54.435Z,12.33
2017-04-15T02:45:53.551Z,12.75
2017-04-15T02:46:52.693Z,11.62
2017-04-15T02:47:51.784Z,12.57
2017-04-15T02:48:50.907Z,12.57
2017-04-15T02:49:50.023Z,11.63
2017-04-15T02:50:49.926Z,13.23
2017-04-15T02:51:49.810Z,12.85
2017-04-15T02:52:48.192Z,13.73
2017-04-15T02:53:47.316Z,11.67
2017-04-15T02:54:46.439Z,12.75
2017-04-15T02:55:46.264Z,12.00
2017-04-15T02:56:45.279Z,11.85
2017-04-15T02:57:44.420Z,11.80
2017-04-15T02:58:43.562Z,12.10
2017-04-15T02:59:43.487Z,12.47
2017-04-15T03:00:42.679Z,11.67
2017-04-15T03:01:41.844Z,12.65
2017-04-15T03:02:41.059Z,13.88
2017-04-15T03:03:40.219Z,12.18
2017-04-15T03:04:39.355Z,13.53
2017-04-15T03:05:38.517Z,12.40
2017-04-15T03:06:37.719Z,12.33
2017-04-15T03:07:36.809Z,13.40
2017-04-15T03:08:35.240Z,11.83
2017-04-15T03:09:34.395Z,11.68
2017-04-15T03:10:33.563Z,12.18
2017-04-15T03:11:32.669Z,11.60
2017-04-15T03:12:31.883Z,13.65
2017-04-15T03:13:31.025Z,13.03
2017-04-15T03:14:30.141Z,11.22
2017-04-15T03:15:28.463Z,11.82
2017-04-15T03:16:27.487Z,12.57
2017-04-15T03:17:26.683Z,11.23
2017-04-15T03:18:25.040Z,11.07
2017-04-15T03:19:24.253Z,12.65
2017-04-15T03:20:23.382Z,11.27
2017-04-15T03:21:23.252Z,11.38
2017-04-15T03:22:22.392Z,11.53
2017-04-15T03:23:21.475Z,11.75
2017-04-15T03:24:19.844Z,11.22
2017-04-15T03:25:18.892Z,10.82
2017-04-15T03:26:18.288Z,11.65
2017-04-15T03:27:16.583Z,10.70
2017-04-15T03:28:15.648Z,11.48
2017-04-15T03:29:14.723Z,10.67
2017-04-15T03:30:13.777Z,11.35
2017-04-15T03:31:12.962Z,11.67
2017-04-15T03:32:11.320Z,11.55
2017-04-15T03:33:10.400Z,11.02
2017-04-15T03:34:09.613Z,10.95
2017-04-15T03:35:08.731Z,11.52
2017-04-15T03:36:07.880Z,11.58
2017-04-15T03:37:06.938Z,11.15
2017-04-15T03:38:05.879Z,10.33
2017-04-15T03:39:05.378Z,10.90
2017-04-15T03:40:03.724Z,10.73
2017-04-15T03:41:02.755Z,11.48
2017-04-15T03:42:01.872Z,10.05
2017-04-15T03:43:00.943Z,11.17
2017-04-15T03:44:00.038Z,10.83
2017-04-15T03:44:59.180Z,11.38
2017-04-15T03:45:58.364Z,11.88
2017-04-15T03:46:57.493Z,11.10
2017-04-15T03:47:57.411Z,11.45
2017-04-15T03:48:56.475Z,11.62
2017-04-15T03:49:55.655Z,11.35
2017-04-15T03:50:54.785Z,11.37
2017-04-15T03:51:53.973Z,11.57
2017-04-15T03:52:53.034Z,11.68
2017-04-15T03:53:52.099Z,11.68
2017-04-15T03:54:50.433Z,11.00
2017-04-15T03:55:48.737Z,12.30
2017-04-15T03:56:48.184Z,11.25
2017-04-15T03:57:47.319Z,11.35
2017-04-15T03:58:46.451Z,11.38
2017-04-15T03:59:44.840Z,10.92
2017-04-15T04:00:43.936Z,11.40
2017-04-15T04:01:42.958Z,11.70
2017-04-15T04:02:42.062Z,12.60
2017-04-15T04:03:41.246Z,13.57
2017-04-15T04:04:40.358Z,11.08
2017-04-15T04:05:39.415Z,12.02
2017-04-15T04:06:38.488Z,13.28
2017-04-15T04:07:37.612Z,10.40
2017-04-15T04:08:36.021Z,12.15
2017-04-15T04:09:35.123Z,12.27
2017-04-15T04:10:34.352Z,12.60
2017-04-15T04:11:33.442Z,12.13
2017-04-15T04:12:32.564Z,11.43
2017-04-15T04:13:31.687Z,11.28
2017-04-15T04:14:30.846Z,13.50
2017-04-15T04:15:30.031Z,11.23
2017-04-15T04:16:29.155Z,12.65
2017-04-15T04:17:28.295Z,13.50
2017-04-15T04:18:27.528Z,12.48
2017-04-15T04:19:26.724Z,13.00
2017-04-15T04:20:25.811Z,12.92
2017-04-15T04:21:24.953Z,12.57
2017-04-15T04:22:24.072Z,13.28
2017-04-15T04:23:23.104Z,12.32
2017-04-15T04:24:21.487Z,12.32
2017-04-15T04:25:20.646Z,12.35
2017-04-15T04:26:19.844Z,12.35
2017-04-15T04:27:18.943Z,12.38
2017-04-15T04:28:18.087Z,14.07
2017-04-15T04:29:17.882Z,11.27
2017-04-15T04:30:17.005Z,12.83
2017-04-15T04:31:16.064Z,12.73
2017-04-15T04:32:15.155Z,12.08
2017-04-15T04:33:14.228Z,12.38
2017-04-15T04:34:13.316Z,11.17
2017-04-15T04:35:12.295Z,12.78
2017-04-15T04:36:11.452Z,12.68
2017-04-15T04:37:10.491Z,10.55
2017-04-15T04:38:09.552Z,12.60
2017-04-15T04:39:08.627Z,11.72
2017-04-15T04:40:07.772Z,12.38
2017-04-15T04:41:06.936Z,10.13
2017-04-15T04:42:06.711Z,10.68
2017-04-15T04:43:05.809Z,11.83
2017-04-15T04:44:05.043Z,12.45
2017-04-15T04:45:04.215Z,11.60
2017-04-15T04:46:03.372Z,11.28
2017-04-15T04:47:02.511Z,11.77
2017-04-15T04:48:01.736Z,11.88
2017-04-15T04:49:00.763Z,12.28
2017-04-15T04:49:59.832Z,12.55
2017-04-15T04:50:58.991Z,13.05
2017-04-15T04:51:58.064Z,11.77
2017-04-15T04:52:57.137Z,12.33
2017-04-15T04:53:56.315Z,12.55
2017-04-15T04:54:55.480Z,13.48
2017-04-15T04:55:55.320Z,13.33
2017-04-15T04:56:54.411Z,11.60
2017-04-15T04:57:53.615Z,11.87
2017-04-15T04:58:52.671Z,12.70
2017-04-15T04:59:51.792Z,13.97
2017-04-15T05:00:50.091Z,13.33
2017-04-15T05:01:49.302Z,12.92
2017-04-15T05:02:48.408Z,12.37
2017-04-15T05:03:48.763Z,12.20
2017-04-15T05:04:47.823Z,12.18
2017-04-15T05:05:46.976Z,11.07
2017-04-15T05:06:46.848Z,11.58
2017-04-15T05:07:46.765Z,12.50
2017-04-15T05:08:45.164Z,11.25
2017-04-15T05:09:44.379Z,12.33
2017-04-15T05:10:43.443Z,12.18
2017-04-15T05:11:42.539Z,12.25
2017-04-15T05:12:41.613Z,10.68
2017-04-15T05:13:40.697Z,11.48
2017-04-15T05:14:39.840Z,12.27
2017-04-15T05:15:39.012Z,11.68
2017-04-15T05:16:38.187Z,11.68
2017-04-15T05:17:37.260Z,10.95
2017-04-15T05:18:36.397Z,12.03
2017-04-15T05:19:35.579Z,11.23
2017-04-15T05:20:34.724Z,11.87
2017-04-15T05:21:33.800Z,13.12
2017-04-15T05:22:32.908Z,12.50
2017-04-15T05:23:32.072Z,10.73
2017-04-15T05:24:31.264Z,11.10
2017-04-15T05:25:30.412Z,10.95
2017-04-15T05:26:29.703Z,11.23
2017-04-15T05:27:28.966Z,11.58
2017-04-15T05:28:28.105Z,11.88
2017-04-15T05:29:26.543Z,11.22
2017-04-15T05:30:25.611Z,11.67
2017-04-15T05:31:24.817Z,12.15
2017-04-15T05:32:23.908Z,10.85
2017-04-15T05:33:22.913Z,10.07
2017-04-15T05:34:22.792Z,10.87
2017-04-15T05:35:22.091Z,11.57
2017-04-15T05:36:20.400Z,14.00
2017-04-15T05:37:19.500Z,11.53
2017-04-15T05:38:18.530Z,10.83
2017-04-15T05:39:17.716Z,11.35
2017-04-15T05:40:16.840Z,12.12
2017-04-15T05:41:15.924Z,10.62
2017-04-15T05:42:15.072Z,11.63
2017-04-15T05:43:14.118Z,10.83
2017-04-15T05:44:13.308Z,12.07
2017-04-15T05:45:12.456Z,11.37
2017-04-15T05:46:11.647Z,12.10
2017-04-15T05:47:11.500Z,10.55
2017-04-15T05:48:10.661Z,12.58
2017-04-15T05:49:09.770Z,11.28
2017-04-15T05:50:08.820Z,11.42
2017-04-15T05:51:07.916Z,10.80
2017-04-15T05:52:07.072Z,11.75
2017-04-15T05:53:06.192Z,11.37
2017-04-15T05:54:05.453Z,10.98
2017-04-15T05:55:05.575Z,10.28
2017-04-15T05:56:04.721Z,10.15
2017-04-15T05:57:03.894Z,10.70
2017-04-15T05:58:03.031Z,10.95
2017-04-15T05:59:02.147Z,12.13
2017-04-15T06:00:01.160Z,12.40
2017-04-15T06:01:00.327Z,12.50
2017-04-15T06:01:59.470Z,10.80
2017-04-15T06:02:58.619Z,12.85
2017-04-15T06:03:58.415Z,11.65
2017-04-15T06:04:57.397Z,11.58
2017-04-15T06:05:58.493Z,11.55
2017-04-15T06:06:57.725Z,11.18
2017-04-15T06:07:56.866Z,11.67
2017-04-15T06:08:56.056Z,10.43
2017-04-15T06:09:57.965Z,12.37
2017-04-15T06:10:57.180Z,11.07
2017-04-15T06:11:56.331Z,12.43
2017-04-15T06:12:55.428Z,11.07
2017-04-15T06:13:54.627Z,10.03
2017-04-15T06:14:53.824Z,11.50
2017-04-15T06:15:53.044Z,11.77
2017-04-15T06:16:52.067Z,10.28
2017-04-15T06:17:50.413Z,10.63
2017-04-15T06:18:49.769Z,10.27
2017-04-15T06:19:48.897Z,10.17
2017-04-15T06:20:48.020Z,10.87
2017-04-15T06:21:47.156Z,12.73
2017-04-15T06:22:46.349Z,10.73
2017-04-15T06:23:46.232Z,10.60
2017-04-15T06:24:45.459Z,9.53
2017-04-15T06:25:43.856Z,9.92
2017-04-15T06:26:43.714Z,8.70
2017-04-15T06:27:42.889Z,9.65
2017-04-15T06:28:42.089Z,9.75
2017-04-15T06:29:41.136Z,8.60
2017-04-15T06:30:40.252Z,9.43
2017-04-15T06:31:39.376Z,8.90
2017-04-15T06:32:38.467Z,8.42
2017-04-15T06:33:38.361Z,8.12
2017-04-15T06:34:37.475Z,9.37
2017-04-15T06:35:37.284Z,9.08
2017-04-15T06:36:36.359Z,8.95
2017-04-15T06:37:35.543Z,8.27
2017-04-15T06:38:34.708Z,8.95
2017-04-15T06:39:34.467Z,8.17
2017-04-15T06:40:33.511Z,8.62
2017-04-15T06:41:32.504Z,8.58
2017-04-15T06:42:31.591Z,9.18
2017-04-15T06:43:30.672Z,8.50
2017-04-15T06:44:29.787Z,8.25
2017-04-15T06:45:28.820Z,7.23
2017-04-15T06:46:27.907Z,8.75
2017-04-15T06:47:26.931Z,8.17
2017-04-15T06:48:25.404Z,8.20
2017-04-15T06:49:24.534Z,8.97
2017-04-15T06:50:23.600Z,7.92
2017-04-15T06:51:22.756Z,8.92
2017-04-15T06:52:21.869Z,7.72
2017-04-15T06:53:20.943Z,8.70
2017-04-15T06:54:20.015Z,8.32
2017-04-15T06:55:19.036Z,7.93
2017-04-15T06:56:19.084Z,9.48
2017-04-15T06:57:18.109Z,7.73
2017-04-15T06:58:16.392Z,7.73
2017-04-15T06:59:15.599Z,8.08
2017-04-15T07:00:14.760Z,8.65
2017-04-15T07:01:13.936Z,8.90
2017-04-15T07:02:13.075Z,8.47
2017-04-15T07:03:12.228Z,9.23
2017-04-15T07:04:11.276Z,8.55
2017-04-15T07:05:10.357Z,9.58
2017-04-15T07:06:09.484Z,8.55
2017-04-15T07:07:08.452Z,8.47
2017-04-15T07:08:07.561Z,9.08
2017-04-15T07:09:06.671Z,8.17
2017-04-15T07:10:05.762Z,8.38
2017-04-15T07:11:04.916Z,9.25
2017-04-15T07:12:03.297Z,8.23
2017-04-15T07:13:02.396Z,10.43
2017-04-15T07:14:01.436Z,9.25
2017-04-15T07:15:00.579Z,7.60
2017-04-15T07:15:58.920Z,8.10
2017-04-15T07:16:58.088Z,10.43
2017-04-15T07:17:57.465Z,8.47
2017-04-15T07:18:56.640Z,8.42
2017-04-15T07:19:55.704Z,8.57
2017-04-15T07:20:54.811Z,8.63
2017-04-15T07:21:53.867Z,8.15
2017-04-15T07:22:52.949Z,8.23
2017-04-15T07:23:52.031Z,7.48
2017-04-15T07:24:50.407Z,8.90
2017-04-15T07:25:50.294Z,8.83
2017-04-15T07:26:49.381Z,7.47
2017-04-15T07:27:48.496Z,8.53
2017-04-15T07:28:47.563Z,7.57
2017-04-15T07:29:46.615Z,7.70
2017-04-15T07:30:45.689Z,8.03
2017-04-15T07:31:44.764Z,8.43
2017-04-15T07:32:43.828Z,8.22
2017-04-15T07:33:42.910Z,7.70
2017-04-15T07:34:41.388Z,7.12
2017-04-15T07:35:40.556Z,7.07
2017-04-15T07:36:39.668Z,7.97
2017-04-15T07:37:38.860Z,7.08
2017-04-15T07:38:37.899Z,7.08
2017-04-15T07:39:37.699Z,7.58
2017-04-15T07:40:36.743Z,8.00
2017-04-15T07:41:35.939Z,7.07
2017-04-15T07:42:35.736Z,8.25
2017-04-15T07:43:34.184Z,7.37
2017-04-15T07:44:33.255Z,7.48
2017-04-15T07:45:32.356Z,7.05
2017-04-15T07:46:31.479Z,8.38
2017-04-15T07:47:30.595Z,7.37
2017-04-15T07:48:29.736Z,8.28
2017-04-15T07:49:28.849Z,6.73
2017-04-15T07:50:28.019Z,6.90
2017-04-15T07:51:27.145Z,7.53
2017-04-15T07:52:26.173Z,7.52
2017-04-15T07:53:25.213Z,7.22
2017-04-15T07:54:24.262Z,7.27
2017-04-15T07:55:23.919Z,6.58
2017-04-15T07:56:23.014Z,6.72
2017-04-15T07:57:22.252Z,6.97
2017-04-15T07:58:21.307Z,6.78
2017-04-15T07:59:20.356Z,6.93
2017-04-15T08:00:18.744Z,6.82
2017-04-15T08:01:18.776Z,6.77
2017-04-15T08:02:17.938Z,6.02
2017-04-15T08:03:17.132Z,7.17
2017-04-15T08:04:16.212Z,6.23
2017-04-15T08:05:15.333Z,6.57
2017-04-15T08:06:14.481Z,6.65
2017-04-15T08:07:13.611Z,5.78
2017-04-15T08:08:13.497Z,6.47
2017-04-15T08:09:12.768Z,6.58
2017-04-15T08:10:11.866Z,5.68
2017-04-15T08:11:10.987Z,5.32
2017-04-15T08:12:10.099Z,5.33
2017-04-15T08:13:09.223Z,6.03
2017-04-15T08:14:08.302Z,5.73
2017-04-15T08:15:07.484Z,6.18
2017-04-15T08:16:07.335Z,6.55
2017-04-15T08:17:06.372Z,5.15
2017-04-15T08:18:04.556Z,5.93
2017-04-15T08:19:03.643Z,5.92
2017-04-15T08:20:02.755Z,4.73
2017-04-15T08:21:01.900Z,5.32
2017-04-15T08:22:00.956Z,5.77
2017-04-15T08:23:00.132Z,5.48
2017-04-15T08:23:59.175Z,5.62
2017-04-15T08:24:58.633Z,6.07
2017-04-15T08:25:57.719Z,5.02
2017-04-15T08:26:56.773Z,5.67
2017-04-15T08:27:55.852Z,5.43
2017-04-15T08:28:54.994Z,4.63
2017-04-15T08:29:54.823Z,4.83
2017-04-15T08:30:54.111Z,5.58
2017-04-15T08:31:53.252Z,4.53
2017-04-15T08:32:51.547Z,4.70
2017-04-15T08:33:50.675Z,4.70
2017-04-15T08:34:49.819Z,4.95
2017-04-15T08:35:49.253Z,5.25
2017-04-15T08:36:48.387Z,4.28
2017-04-15T08:37:47.520Z,4.67
2017-04-15T08:38:45.928Z,4.07
2017-04-15T08:39:44.979Z,4.20
2017-04-15T08:40:44.143Z,4.48
2017-04-15T08:41:43.288Z,3.82
2017-04-15T08:42:42.372Z,3.85
2017-04-15T08:43:41.491Z,3.07
2017-04-15T08:44:40.563Z,4.47
2017-04-15T08:45:39.655Z,3.97
2017-04-15T08:46:38.752Z,3.63
2017-04-15T08:47:37.827Z,3.22
2017-04-15T08:48:36.921Z,3.03
2017-04-15T08:49:35.296Z,3.17
2017-04-15T08:50:34.394Z,3.32
2017-04-15T08:51:33.543Z,3.13
2017-04-15T08:52:32.572Z,3.07
2017-04-15T08:53:32.621Z,3.13
2017-04-15T08:54:31.840Z,4.00
2017-04-15T08:55:30.951Z,3.33
2017-04-15T08:56:30.135Z,3.10
2017-04-15T08:57:29.155Z,2.83
2017-04-15T08:58:28.296Z,3.73
2017-04-15T08:59:27.463Z,3.60
2017-04-15T09:00:25.819Z,4.32
2017-04-15T09:01:24.232Z,4.40
2017-04-15T09:02:23.253Z,3.80
2017-04-15T09:03:21.543Z,2.97
2017-04-15T09:04:20.632Z,2.92
2017-04-15T09:05:19.716Z,2.87
2017-04-15T09:06:18.879Z,2.90
2017-04-15T09:07:17.939Z,2.95
2017-04-15T09:08:16.239Z,2.65
2017-04-15T09:09:15.385Z,3.73
2017-04-15T09:10:14.575Z,2.73
2017-04-15T09:11:13.750Z,3.67
2017-04-15T09:12:12.844Z,4.32
2017-04-15T09:13:11.989Z,3.13
2017-04-15T09:14:11.156Z,3.27
2017-04-15T09:15:10.316Z,3.00
2017-04-15T09:16:09.447Z,3.03
2017-04-15T09:17:09.303Z,3.03
2017-04-15T09:18:08.307Z,2.83
2017-04-15T09:19:07.328Z,2.60
2017-04-15T09:20:06.396Z,2.68
2017-04-15T09:21:05.433Z,2.78
2017-04-15T09:22:03.752Z,2.00
2017-04-15T09:23:02.852Z,2.87
2017-04-15T09:24:01.940Z,1.75
2017-04-15T09:25:00.938Z,2.30
2017-04-15T09:25:59.948Z,2.18
2017-04-15T09:26:59.043Z,2.28
2017-04-15T09:27:58.076Z,1.80
2017-04-15T09:28:57.140Z,2.03
2017-04-15T09:29:56.199Z,1.67
2017-04-15T09:30:54.594Z,1.78
2017-04-15T09:31:53.000Z,1.10
2017-04-15T09:32:52.034Z,1.62
2017-04-15T09:33:50.384Z,1.50
2017-04-15T09:34:49.500Z,1.53
2017-04-15T09:35:48.622Z,1.57
2017-04-15T09:36:47.675Z,1.65
2017-04-15T09:37:46.819Z,1.30
2017-04-15T09:38:45.124Z,1.35
2017-04-15T09:39:44.276Z,1.48
2017-04-15T09:40:43.377Z,2.08
2017-04-15T09:41:42.490Z,1.33
2017-04-15T09:42:41.660Z,1.52
2017-04-15T09:43:40.763Z,1.20
2017-04-15T09:44:38.978Z,2.33
2017-04-15T09:45:38.011Z,1.83
2017-04-15T09:46:36.323Z,2.60
2017-04-15T09:47:35.426Z,1.63
2017-04-15T09:48:34.455Z,2.32
2017-04-15T09:49:34.210Z,2.65
2017-04-15T09:50:32.520Z,2.53
2017-04-15T09:51:30.922Z,2.28
2017-04-15T09:52:30.036Z,1.98
2017-04-15T09:53:28.341Z,2.10
2017-04-15T09:54:27.396Z,2.67
2017-04-15T09:55:26.475Z,2.10
2017-04-15T09:56:25.625Z,2.43
2017-04-15T09:57:23.955Z,3.48
2017-04-15T09:58:22.292Z,3.43
2017-04-15T09:59:21.341Z,4.62
2017-04-15T10:00:19.667Z,4.48
2017-04-15T10:01:18.022Z,2.75
2017-04-15T10:02:17.072Z,2.10
2017-04-15T10:03:16.147Z,2.37
2017-04-15T10:04:15.267Z,2.02
2017-04-15T10:05:14.343Z,2.40
2017-04-15T10:06:13.363Z,2.50
2017-04-15T10:07:12.384Z,2.93
2017-04-15T10:08:12.264Z,3.08
2017-04-15T10:09:11.627Z,3.27
2017-04-15T10:10:10.651Z,2.60
2017-04-15T10:11:09.928Z,2.28
2017-04-15T10:12:09.069Z,1.92
2017-04-15T10:13:08.167Z,2.00
2017-04-15T10:14:07.243Z,2.18
2017-04-15T10:15:06.308Z,4.50
2017-04-15T10:16:05.284Z,3.08
2017-04-15T10:17:04.407Z,3.32
2017-04-15T10:18:03.468Z,2.07
2017-04-15T10:19:02.400Z,2.22
2017-04-15T10:20:00.768Z,1.90
2017-04-15T10:20:59.844Z,2.83
2017-04-15T10:21:58.905Z,2.47
2017-04-15T10:22:57.311Z,2.33
2017-04-15T10:23:56.384Z,2.57
2017-04-15T10:24:55.473Z,2.07
2017-04-15T10:25:54.627Z,2.53
2017-04-15T10:26:53.807Z,2.07
2017-04-15T10:27:52.788Z,1.88
2017-04-15T10:28:51.768Z,2.07
2017-04-15T10:29:50.864Z,1.80
2017-04-15T10:30:49.931Z,1.48
2017-04-15T10:31:49.075Z,1.73
2017-04-15T10:32:47.575Z,1.92
2017-04-15T10:33:46.653Z,1.50
2017-04-15T10:34:45.736Z,2.17
2017-04-15T10:35:44.804Z,2.10
2017-04-15T10:36:44.135Z,2.05
2017-04-15T10:37:43.270Z,1.93
2017-04-15T10:38:42.264Z,1.90
2017-04-15T10:39:41.405Z,1.68
2017-04-15T10:40:40.424Z,1.57
2017-04-15T10:41:39.468Z,2.22
2017-04-15T10:42:38.603Z,1.75
2017-04-15T10:43:37.710Z,1.80
2017-04-15T10:44:36.796Z,1.23
2017-04-15T10:45:35.149Z,1.60
2017-04-15T10:46:34.961Z,1.43
2017-04-15T10:47:34.067Z,1.48
2017-04-15T10:48:33.157Z,1.95
2017-04-15T10:49:32.621Z,1.27
2017-04-15T10:50:31.603Z,1.60
2017-04-15T10:51:30.569Z,1.35
2017-04-15T10:52:29.668Z,1.87
2017-04-15T10:53:28.791Z,1.60
2017-04-15T10:54:27.315Z,1.42
2017-04-15T10:55:26.490Z,1.30
2017-04-15T10:56:25.531Z,1.77
2017-04-15T10:57:23.899Z,1.55
2017-04-15T10:58:22.272Z,1.60
2017-04-15T10:59:20.644Z,1.65
2017-04-15T11:00:21.088Z,1.65
2017-04-15T11:01:20.240Z,1.82
2017-04-15T11:02:19.438Z,1.70
2017-04-15T11:03:18.492Z,1.83
2017-04-15T11:04:17.531Z,1.68
2017-04-15T11:05:15.835Z,1.37
2017-04-15T11:06:14.852Z,1.87
2017-04-15T11:07:13.984Z,1.50
2017-04-15T11:08:13.031Z,1.90
2017-04-15T11:09:12.408Z,1.27
2017-04-15T11:10:11.472Z,1.72
2017-04-15T11:11:10.639Z,1.35
2017-04-15T11:12:09.683Z,1.68
2017-04-15T11:13:08.663Z,1.32
2017-04-15T11:14:07.791Z,1.98
2017-04-15T11:15:07.004Z,1.83
2017-04-15T11:16:05.335Z,1.42
2017-04-15T11:17:04.421Z,1.55
2017-04-15T11:18:03.552Z,1.88
2017-04-15T11:19:02.643Z,1.70
2017-04-15T11:20:01.815Z,1.68
2017-04-15T11:21:00.899Z,1.42
2017-04-15T11:22:00.099Z,1.33
2017-04-15T11:22:59.224Z,1.38
2017-04-15T11:23:57.667Z,1.68
2017-04-15T11:24:56.789Z,1.67
2017-04-15T11:25:55.801Z,2.05
2017-04-15T11:26:54.952Z,1.75
2017-04-15T11:27:54.001Z,1.80
2017-04-15T11:28:53.100Z,1.97
2017-04-15T11:29:52.153Z,2.00
2017-04-15T11:30:50.391Z,1.68
2017-04-15T11:31:49.440Z,1.38
2017-04-15T11:32:48.505Z,1.55
2017-04-15T11:33:47.584Z,1.18
2017-04-15T11:34:46.628Z,1.32
2017-04-15T11:35:44.989Z,1.30
2017-04-15T11:36:44.068Z,1.45
2017-04-15T11:37:43.281Z,1.40
2017-04-15T11:38:42.436Z,1.50
2017-04-15T11:39:40.831Z,1.62
2017-04-15T11:40:39.888Z,1.35
2017-04-15T11:41:38.931Z,1.28
2017-04-15T11:42:37.973Z,1.10
2017-04-15T11:43:36.943Z,1.52
2017-04-15T11:44:36.079Z,1.65
2017-04-15T11:45:35.172Z,1.65
2017-04-15T11:46:33.528Z,1.77
2017-04-15T11:47:31.879Z,1.70
2017-04-15T11:48:30.995Z,1.55
2017-04-15T11:49:30.050Z,1.58
2017-04-15T11:50:28.340Z,1.52
2017-04-15T11:51:27.444Z,1.63
2017-04-15T11:52:26.609Z,1.43
2017-04-15T11:53:25.824Z,1.55
2017-04-15T11:54:25.025Z,1.65
2017-04-15T11:55:24.051Z,1.55
2017-04-15T11:56:23.136Z,1.48
2017-04-15T11:57:22.272Z,1.75
2017-04-15T11:58:20.667Z,1.53
2017-04-15T11:59:19.817Z,2.00
2017-04-15T12:00:18.913Z,2.08
2017-04-15T12:01:17.392Z,3.77
2017-04-15T12:02:15.819Z,1.75
2017-04-15T12:03:15.724Z,2.27
2017-04-15T12:04:14.100Z,2.77
2017-04-15T12:05:13.198Z,1.97
2017-04-15T12:06:12.198Z,2.42
2017-04-15T12:07:12.059Z,2.45
2017-04-15T12:08:11.137Z,2.57
2017-04-15T12:09:10.227Z,2.20
2017-04-15T12:10:09.489Z,2.12
2017-04-15T12:11:08.545Z,2.08
2017-04-15T12:12:07.575Z,1.57
2017-04-15T12:13:06.635Z,2.15
2017-04-15T12:14:05.637Z,2.03
2017-04-15T12:15:04.800Z,1.95
2017-04-15T12:16:03.892Z,2.42
2017-04-15T12:17:03.017Z,1.88
2017-04-15T12:18:02.065Z,2.03
2017-04-15T12:19:01.183Z,2.38
2017-04-15T12:20:00.279Z,1.92
2017-04-15T12:20:59.372Z,2.43
2017-04-15T12:21:58.478Z,2.38
2017-04-15T12:22:57.604Z,2.37
2017-04-15T12:23:56.711Z,2.07
2017-04-15T12:24:55.785Z,1.93
2017-04-15T12:25:54.856Z,2.32
2017-04-15T12:26:53.867Z,1.95
2017-04-15T12:27:53.016Z,1.78
2017-04-15T12:28:52.144Z,2.25
2017-04-15T12:29:51.244Z,2.45
2017-04-15T12:30:51.080Z,2.80
2017-04-15T12:31:50.187Z,1.78
2017-04-15T12:32:49.376Z,2.63
2017-04-15T12:33:48.587Z,2.27
2017-04-15T12:34:47.696Z,3.55
2017-04-15T12:35:46.780Z,2.27
2017-04-15T12:36:45.883Z,4.73
2017-04-15T12:37:44.950Z,3.25
2017-04-15T12:38:44.016Z,3.15
2017-04-15T12:39:43.061Z,2.48
2017-04-15T12:40:42.619Z,2.45
2017-04-15T12:41:41.780Z,2.60
2017-04-15T12:42:40.913Z,2.18
2017-04-15T12:43:39.256Z,2.38
2017-04-15T12:44:38.427Z,2.00
2017-04-15T12:45:37.533Z,2.67
2017-04-15T12:46:35.900Z,2.45
2017-04-15T12:47:34.565Z,2.18
2017-04-15T12:48:33.043Z,2.33
2017-04-15T12:49:31.461Z,2.58
2017-04-15T12:50:30.622Z,3.03
2017-04-15T12:51:29.804Z,2.27
2017-04-15T12:52:28.875Z,2.83
2017-04-15T12:53:27.968Z,2.78
2017-04-15T12:54:26.380Z,2.83
2017-04-15T12:55:24.772Z,2.18